Time;durP1;ratioP1;P1;durP2;ratioP2;P2;SDS_P1;SDS_P2;PMS_P1;PMS_P2;Temp;Humidity;BMP_temperature;BMP_pressure;BME280_temperature;BME280_humidity;BME280_pressure;Samples;Min_cycle;Max_cycle;Signal;HPM_P1;HPM_P2
2021/09/12 00:01:22;;;;;;;;;;;15.80;75.60;;;;;;5068924;28;20419;-76
2021/09/12 00:03:48;;;;;;;;;;;15.80;75.30;;;;;;5069208;28;19917;-76
2021/09/12 00:06:13;;;;;;;;;;;15.80;76.10;;;;;;5069097;28;19995;-76
2021/09/12 00:08:39;;;;;;;;;;;15.80;75.70;;;;;;5069273;28;19908;-76
2021/09/12 00:11:04;;;;;;;;;;;15.80;75.90;;;;;;5069200;28;19978;-76
2021/09/12 00:13:30;;;;;;;;;;;15.80;76.10;;;;;;5068944;28;19908;-77
2021/09/12 00:15:55;;;;;;;;;;;15.70;76.40;;;;;;5067743;28;19908;-76
2021/09/12 00:18:21;;;;;;;;;;;15.70;76.30;;;;;;5067661;28;19908;-76
2021/09/12 00:20:46;;;;;;;;;;;15.70;76.70;;;;;;5068883;28;19908;-76
2021/09/12 00:23:12;;;;;;;;;;;15.60;76.90;;;;;;5069155;28;19997;-76
2021/09/12 00:25:38;;;;;;;;;;;15.60;76.70;;;;;;5068698;28;19911;-77
2021/09/12 00:28:03;;;;;;;;;;;15.60;77.00;;;;;;5068869;28;19999;-76
2021/09/12 00:30:29;;;;;;;;;;;15.60;77.30;;;;;;5068745;28;20398;-75
2021/09/12 00:32:54;;;;;;;;;;;15.60;77.20;;;;;;5071235;28;19908;-76
2021/09/12 00:35:20;;;;;;;;;;;15.60;77.20;;;;;;5072787;28;19944;-76
2021/09/12 00:37:47;;;;;;;;;;;15.60;77.20;;;;;;5072872;28;20394;-77
2021/09/12 00:40:13;;;;;;;;;;;15.60;77.20;;;;;;5072642;28;19915;-77
2021/09/12 00:42:38;;;;;;;;;;;15.60;77.60;;;;;;5072677;28;19920;-75
2021/09/12 00:45:04;;;;;;;;;;;15.60;78.50;;;;;;5072829;28;19908;-75
2021/09/12 00:47:30;;;;;;;;;;;15.50;77.70;;;;;;5072742;28;19908;-77
2021/09/12 00:49:55;;;;;;;;;;;15.50;78.00;;;;;;5071781;28;19957;-76
2021/09/12 00:52:22;;;;;;;;;;;15.50;78.00;;;;;;5072729;28;19908;-76
2021/09/12 00:54:49;;;;;;;;;;;15.50;78.40;;;;;;5071292;28;19955;-77
2021/09/12 00:57:14;;;;;;;;;;;15.40;78.30;;;;;;5072386;28;19924;-75
2021/09/12 00:59:41;;;;;;;;;;;15.40;78.50;;;;;;5072243;28;20448;-74
2021/09/12 01:02:07;;;;;;;;;;;15.40;78.60;;;;;;5072370;28;19912;-76
2021/09/12 01:04:33;;;;;;;;;;;15.30;79.00;;;;;;5072445;28;20373;-76
2021/09/12 01:07:00;;;;;;;;;;;15.30;79.30;;;;;;5071005;28;19908;-78
2021/09/12 01:09:25;;;;;;;;;;;15.30;79.50;;;;;;5072159;28;20377;-77
2021/09/12 01:11:51;;;;;;;;;;;15.30;79.60;;;;;;5070774;28;19912;-77
2021/09/12 01:14:22;;;;;;;;;;;15.20;80.00;;;;;;5070750;28;20406;-76
2021/09/12 01:16:47;;;;;;;;;;;15.20;80.00;;;;;;5072076;28;19905;-76
2021/09/12 01:19:13;;;;;;;;;;;15.20;80.30;;;;;;5072110;28;19908;-75
2021/09/12 01:21:38;;;;;;;;;;;15.20;80.50;;;;;;5072021;28;20331;-75
2021/09/12 01:24:08;;;;;;;;;;;15.10;80.30;;;;;;5071829;28;20008;-74
2021/09/12 01:26:34;;;;;;;;;;;15.10;80.70;;;;;;5071930;28;19931;-75
2021/09/12 01:28:59;;;;;;;;;;;15.10;81.00;;;;;;5070398;28;20368;-77
2021/09/12 01:31:26;;;;;;;;;;;15.10;80.90;;;;;;5071815;28;19919;-76
2021/09/12 01:33:51;;;;;;;;;;;15.10;80.70;;;;;;5072002;28;19920;-76
2021/09/12 01:36:17;;;;;;;;;;;15.10;80.60;;;;;;5070731;28;19905;-75
2021/09/12 01:38:43;;;;;;;;;;;15.20;80.80;;;;;;5070426;28;20368;-76
2021/09/12 01:41:09;;;;;;;;;;;15.20;80.60;;;;;;5071777;28;19950;-76
2021/09/12 01:43:34;;;;;;;;;;;15.20;80.50;;;;;;5069981;28;20013;-76
2021/09/12 01:46:00;;;;;;;;;;;15.20;80.20;;;;;;5071443;28;19904;-76
2021/09/12 01:48:26;;;;;;;;;;;15.30;80.20;;;;;;5071599;28;19908;-75
2021/09/12 01:50:51;;;;;;;;;;;15.30;80.30;;;;;;5070513;28;19916;-77
2021/09/12 01:53:17;;;;;;;;;;;15.20;80.70;;;;;;5071382;28;19908;-75
2021/09/12 01:55:42;;;;;;;;;;;15.20;80.50;;;;;;5070009;28;19916;-76
2021/09/12 01:58:08;;;;;;;;;;;15.20;80.60;;;;;;5071515;28;19909;-76
2021/09/12 02:00:33;;;;;;;;;;;15.10;80.80;;;;;;5071333;28;19905;-76
2021/09/12 02:02:59;;;;;;;;;;;15.10;81.00;;;;;;5071283;28;19916;-76
2021/09/12 02:05:25;;;;;;;;;;;15.00;81.40;;;;;;5071114;28;19932;-76
2021/09/12 02:07:50;;;;;;;;;;;15.00;81.70;;;;;;5071216;28;20518;-76
2021/09/12 02:10:16;;;;;;;;;;;15.00;81.80;;;;;;5071241;28;19923;-76
2021/09/12 02:12:42;;;;;;;;;;;15.00;81.90;;;;;;5071155;28;19916;-76
2021/09/12 02:15:08;;;;;;;;;;;14.90;81.90;;;;;;5071097;28;20091;-77
2021/09/12 02:17:33;;;;;;;;;;;15.00;82.00;;;;;;5070814;28;19908;-76
2021/09/12 02:20:00;;;;;;;;;;;15.00;82.20;;;;;;5071072;28;19945;-76
2021/09/12 02:22:25;;;;;;;;;;;14.90;82.60;;;;;;5071005;28;19920;-76
2021/09/12 02:24:51;;;;;;;;;;;14.90;82.80;;;;;;5070882;28;19958;-75
2021/09/12 02:27:16;;;;;;;;;;;14.80;83.10;;;;;;5070758;28;19908;-75
2021/09/12 02:29:42;;;;;;;;;;;14.80;83.40;;;;;;5070916;28;19924;-76
2021/09/12 02:32:07;;;;;;;;;;;14.70;84.00;;;;;;5070732;28;19924;-76
2021/09/12 02:34:33;;;;;;;;;;;14.60;84.30;;;;;;5069359;28;20331;-76
2021/09/12 02:36:58;;;;;;;;;;;14.60;84.30;;;;;;5070685;28;19951;-77
2021/09/12 02:39:24;;;;;;;;;;;14.60;84.40;;;;;;5070634;28;19908;-76
2021/09/12 02:41:50;;;;;;;;;;;14.70;84.40;;;;;;5070644;28;19911;-78
2021/09/12 02:44:15;;;;;;;;;;;14.70;84.10;;;;;;5069071;28;19924;-75
2021/09/12 02:46:40;;;;;;;;;;;14.80;83.80;;;;;;5070187;28;20371;-75
2021/09/12 02:49:06;;;;;;;;;;;14.80;83.50;;;;;;5070299;28;20357;-76
2021/09/12 02:51:32;;;;;;;;;;;14.80;83.30;;;;;;5070226;28;19955;-75
2021/09/12 02:53:57;;;;;;;;;;;14.80;83.40;;;;;;5070406;28;19949;-76
2021/09/12 02:56:23;;;;;;;;;;;14.80;83.50;;;;;;5068369;28;20647;-76
2021/09/12 02:58:48;;;;;;;;;;;14.80;83.80;;;;;;5070415;28;19930;-74
2021/09/12 03:01:14;;;;;;;;;;;14.80;83.80;;;;;;5068792;28;20430;-74
2021/09/12 03:03:39;;;;;;;;;;;14.80;83.80;;;;;;5069732;28;19916;-74
2021/09/12 03:06:05;;;;;;;;;;;14.80;83.70;;;;;;5070045;28;19912;-73
2021/09/12 03:08:30;;;;;;;;;;;14.80;83.70;;;;;;5070081;28;19995;-73
2021/09/12 03:10:56;;;;;;;;;;;14.90;83.40;;;;;;5069939;28;20292;-74
2021/09/12 03:13:22;;;;;;;;;;;14.90;83.30;;;;;;5069899;28;19916;-74
2021/09/12 03:15:47;;;;;;;;;;;14.90;83.60;;;;;;5068987;28;19915;-73
2021/09/12 03:18:13;;;;;;;;;;;14.80;83.70;;;;;;5068503;28;19908;-74
2021/09/12 03:20:38;;;;;;;;;;;14.80;84.00;;;;;;5069858;28;20427;-73
2021/09/12 03:23:04;;;;;;;;;;;14.70;84.30;;;;;;5069671;28;19920;-73
2021/09/12 03:25:30;;;;;;;;;;;14.70;84.50;;;;;;5068022;28;19912;-74
2021/09/12 03:27:55;;;;;;;;;;;14.70;84.80;;;;;;5069755;28;20269;-75
2021/09/12 03:30:21;;;;;;;;;;;14.60;85.00;;;;;;5068254;28;19916;-75
2021/09/12 03:32:47;;;;;;;;;;;14.60;85.10;;;;;;5069481;28;20289;-75
2021/09/12 03:35:12;;;;;;;;;;;14.50;85.30;;;;;;5069453;28;19908;-73
2021/09/12 03:37:38;;;;;;;;;;;14.50;85.50;;;;;;5069445;28;19908;-76
2021/09/12 03:40:04;;;;;;;;;;;14.50;85.70;;;;;;5068001;28;19914;-73
2021/09/12 03:42:30;;;;;;;;;;;14.40;86.00;;;;;;5069233;28;19947;-74
2021/09/12 03:44:55;;;;;;;;;;;14.40;86.00;;;;;;5069376;28;19912;-75
2021/09/12 03:47:21;;;;;;;;;;;14.40;86.30;;;;;;5067733;28;19955;-75
2021/09/12 03:49:46;;;;;;;;;;;14.40;86.30;;;;;;5069236;28;19908;-74
2021/09/12 03:52:12;;;;;;;;;;;14.40;86.50;;;;;;5069203;28;19958;-74
2021/09/12 03:54:38;;;;;;;;;;;14.30;86.50;;;;;;5069335;28;19909;-75
2021/09/12 03:57:03;;;;;;;;;;;14.30;86.80;;;;;;5069215;28;19917;-74
2021/09/12 03:59:29;;;;;;;;;;;14.30;86.90;;;;;;5068973;28;19905;-75
2021/09/12 04:01:54;;;;;;;;;;;14.20;86.90;;;;;;5069297;28;20453;-74
2021/09/12 04:04:20;;;;;;;;;;;14.30;87.30;;;;;;5069066;28;20319;-75
2021/09/12 04:06:45;;;;;;;;;;;14.20;87.50;;;;;;5068419;28;20380;-75
2021/09/12 04:09:11;;;;;;;;;;;14.20;87.30;;;;;;5069076;28;20311;-75
2021/09/12 04:11:36;;;;;;;;;;;14.10;87.40;;;;;;5068914;28;19908;-75
2021/09/12 04:14:02;;;;;;;;;;;14.20;87.90;;;;;;5067734;28;20405;-75
2021/09/12 04:16:28;;;;;;;;;;;14.20;87.90;;;;;;5068988;28;19922;-74
2021/09/12 04:18:53;;;;;;;;;;;14.20;87.80;;;;;;5068927;28;19954;-75
2021/09/12 04:21:19;;;;;;;;;;;14.20;88.00;;;;;;5069008;28;19915;-74
2021/09/12 04:23:44;;;;;;;;;;;14.10;87.90;;;;;;5068614;28;19932;-74
2021/09/12 04:26:10;;;;;;;;;;;14.10;88.10;;;;;;5068825;28;19908;-75
2021/09/12 04:28:35;;;;;;;;;;;14.20;88.00;;;;;;5068609;28;20010;-74
2021/09/12 04:31:01;;;;;;;;;;;14.20;88.00;;;;;;5067352;28;19961;-75
2021/09/12 04:33:27;;;;;;;;;;;14.20;87.90;;;;;;5068495;28;19905;-73
2021/09/12 04:35:52;;;;;;;;;;;14.20;88.10;;;;;;5066464;28;19931;-74
2021/09/12 04:38:18;;;;;;;;;;;14.20;87.90;;;;;;5066694;28;19909;-76
2021/09/12 04:40:44;;;;;;;;;;;14.30;88.20;;;;;;5068067;28;19923;-74
2021/09/12 04:43:09;;;;;;;;;;;14.30;88.10;;;;;;5068398;28;20372;-75
2021/09/12 04:45:35;;;;;;;;;;;14.30;87.90;;;;;;5068559;28;19913;-77
2021/09/12 04:48:00;;;;;;;;;;;14.40;87.70;;;;;;5067215;28;19905;-76
2021/09/12 04:50:26;;;;;;;;;;;14.40;87.50;;;;;;5068650;28;19915;-75
2021/09/12 04:52:51;;;;;;;;;;;14.70;87.30;;;;;;5068706;28;19908;-76
2021/09/12 04:55:17;;;;;;;;;;;15.00;85.50;;;;;;5068476;28;19953;-76
2021/09/12 04:57:44;;;;;;;;;;;15.30;84.00;;;;;;5068369;28;19927;-76
2021/09/12 05:00:10;;;;;;;;;;;15.50;83.80;;;;;;5068470;28;20380;-76
2021/09/12 05:02:35;;;;;;;;;;;15.50;83.50;;;;;;5067303;28;19920;-76
2021/09/12 05:05:01;;;;;;;;;;;15.40;83.40;;;;;;5066813;28;19904;-75
2021/09/12 05:07:26;;;;;;;;;;;15.40;83.30;;;;;;5068244;28;20395;-75
2021/09/12 05:09:52;;;;;;;;;;;15.50;83.40;;;;;;5068503;28;19936;-75
2021/09/12 05:12:17;;;;;;;;;;;15.50;83.80;;;;;;5068586;28;19909;-75
2021/09/12 05:14:43;;;;;;;;;;;15.50;83.80;;;;;;5068177;28;19905;-73
2021/09/12 05:17:09;;;;;;;;;;;15.60;83.70;;;;;;5068184;28;19954;-75
2021/09/12 05:19:34;;;;;;;;;;;15.70;83.60;;;;;;5071201;28;19919;-75
2021/09/12 05:22:00;;;;;;;;;;;15.90;83.50;;;;;;5071892;28;19912;-76
2021/09/12 05:24:25;;;;;;;;;;;16.50;82.00;;;;;;5072018;28;19912;-76
2021/09/12 05:26:51;;;;;;;;;;;17.20;79.20;;;;;;5072009;28;19924;-75
2021/09/12 05:29:18;;;;;;;;;;;17.90;76.40;;;;;;5071695;28;20392;-77
2021/09/12 05:31:43;;;;;;;;;;;18.60;74.30;;;;;;5072003;28;19958;-76
2021/09/12 05:34:09;;;;;;;;;;;19.10;71.90;;;;;;5071782;28;19912;-75
2021/09/12 05:36:35;;;;;;;;;;;19.70;70.50;;;;;;5071686;28;20109;-77
2021/09/12 05:39:00;;;;;;;;;;;20.20;68.00;;;;;;5071840;28;19923;-82
2021/09/12 05:41:26;;;;;;;;;;;20.50;65.90;;;;;;5071606;28;20327;-82
2021/09/12 05:43:51;;;;;;;;;;;20.70;64.80;;;;;;5071584;28;20335;-81
2021/09/12 05:46:17;;;;;;;;;;;20.80;65.60;;;;;;5071573;28;20296;-80
2021/09/12 05:48:42;;;;;;;;;;;20.90;64.60;;;;;;5071663;28;19984;-78
2021/09/12 05:51:08;;;;;;;;;;;20.90;63.10;;;;;;5070263;28;19915;-79
2021/09/12 05:53:33;;;;;;;;;;;20.80;62.50;;;;;;5071018;28;19955;-79
2021/09/12 05:55:59;;;;;;;;;;;20.90;63.00;;;;;;5071137;28;20366;-79
2021/09/12 05:58:24;;;;;;;;;;;21.00;62.40;;;;;;5071648;28;19908;-79
2021/09/12 06:00:50;;;;;;;;;;;21.00;62.30;;;;;;5071405;28;19904;-80
2021/09/12 06:03:16;;;;;;;;;;;21.00;62.40;;;;;;5071659;28;19920;-79
2021/09/12 06:05:41;;;;;;;;;;;21.10;63.40;;;;;;5070210;28;20004;-79
2021/09/12 06:08:07;;;;;;;;;;;21.20;63.50;;;;;;5069530;28;20349;-79
2021/09/12 06:10:32;;;;;;;;;;;21.40;62.50;;;;;;5071125;28;19962;-80
2021/09/12 06:12:58;;;;;;;;;;;21.80;61.00;;;;;;5070930;28;19958;-80
2021/09/12 06:15:23;;;;;;;;;;;22.20;59.70;;;;;;5070670;28;20269;-81
2021/09/12 06:17:49;;;;;;;;;;;22.80;58.30;;;;;;5069674;28;19915;-79
2021/09/12 06:20:14;;;;;;;;;;;23.40;56.40;;;;;;5070915;28;19904;-79
2021/09/12 06:22:44;;;;;;;;;;;23.90;55.40;;;;;;5070800;28;20302;-79
2021/09/12 06:25:10;;;;;;;;;;;24.60;54.40;;;;;;5069422;28;19908;-78
2021/09/12 06:27:36;;;;;;;;;;;25.30;51.00;;;;;;5070652;28;20746;-80
2021/09/12 06:30:01;;;;;;;;;;;25.90;48.60;;;;;;5070271;28;19908;-79
2021/09/12 06:32:27;;;;;;;;;;;26.50;47.50;;;;;;5070943;28;19908;-79
2021/09/12 06:34:52;;;;;;;;;;;27.20;45.50;;;;;;5070778;28;19908;-80
2021/09/12 06:37:18;;;;;;;;;;;27.80;43.80;;;;;;5070594;28;19905;-80
2021/09/12 06:39:43;;;;;;;;;;;28.30;42.10;;;;;;5070587;28;19908;-80
2021/09/12 06:42:09;;;;;;;;;;;28.70;40.60;;;;;;5070222;28;19950;-80
2021/09/12 06:44:34;;;;;;;;;;;29.10;40.20;;;;;;5070407;28;19908;-80
2021/09/12 06:47:00;;;;;;;;;;;29.50;39.30;;;;;;5070176;28;19904;-78
2021/09/12 06:49:26;;;;;;;;;;;29.90;38.00;;;;;;5068897;28;19938;-80
2021/09/12 06:51:52;;;;;;;;;;;30.20;36.90;;;;;;5070463;28;20005;-79
2021/09/12 06:54:17;;;;;;;;;;;30.60;36.90;;;;;;5069957;28;19912;-79
2021/09/12 06:56:43;;;;;;;;;;;31.10;35.30;;;;;;5070121;28;19917;-79
2021/09/12 06:59:08;;;;;;;;;;;31.20;34.00;;;;;;5070723;28;19912;-78
2021/09/12 07:01:34;;;;;;;;;;;31.20;33.60;;;;;;5068160;28;19905;-80
2021/09/12 07:04:00;;;;;;;;;;;31.30;33.80;;;;;;5069788;28;19943;-80
2021/09/12 07:06:25;;;;;;;;;;;31.70;33.50;;;;;;5069873;28;20269;-78
2021/09/12 07:08:51;;;;;;;;;;;32.10;32.90;;;;;;5069701;28;19915;-79
2021/09/12 07:11:17;;;;;;;;;;;32.40;33.00;;;;;;5069869;28;20400;-79
2021/09/12 07:13:42;;;;;;;;;;;32.80;32.20;;;;;;5069232;28;19905;-79
2021/09/12 07:16:08;;;;;;;;;;;32.90;32.90;;;;;;5068985;28;19904;-79
2021/09/12 07:18:34;;;;;;;;;;;33.00;32.80;;;;;;5068782;28;20288;-78
2021/09/12 07:20:59;;;;;;;;;;;33.40;32.10;;;;;;5067482;28;19908;-80
2021/09/12 07:23:25;;;;;;;;;;;33.70;31.60;;;;;;5068591;28;19916;-80
2021/09/12 07:25:50;;;;;;;;;;;33.90;31.20;;;;;;5068870;28;19913;-79
2021/09/12 07:28:16;;;;;;;;;;;34.10;30.80;;;;;;5067166;28;19916;-80
2021/09/12 07:30:42;;;;;;;;;;;34.30;30.30;;;;;;5069149;28;20348;-79
2021/09/12 07:33:07;;;;;;;;;;;34.50;30.00;;;;;;5067481;28;20498;-79
2021/09/12 07:35:33;;;;;;;;;;;34.60;30.00;;;;;;5068616;28;19908;-80
2021/09/12 07:37:59;;;;;;;;;;;34.80;29.70;;;;;;5067169;28;19909;-79
2021/09/12 07:40:24;;;;;;;;;;;34.80;30.50;;;;;;5068410;28;19908;-81
2021/09/12 07:42:51;;;;;;;;;;;35.10;29.70;;;;;;5068197;28;20007;-81
2021/09/12 07:45:16;;;;;;;;;;;35.00;29.90;;;;;;5068050;28;20320;-78
2021/09/12 07:47:42;;;;;;;;;;;35.30;29.30;;;;;;5067708;28;19908;-79
2021/09/12 07:50:08;;;;;;;;;;;35.40;29.00;;;;;;5069135;28;19909;-79
2021/09/12 07:52:33;;;;;;;;;;;35.50;28.80;;;;;;5069269;28;20361;-80
2021/09/12 07:54:59;;;;;;;;;;;35.50;28.50;;;;;;5069220;28;19914;-80
2021/09/12 07:57:25;;;;;;;;;;;35.80;28.10;;;;;;5067269;28;20301;-80
2021/09/12 07:59:50;;;;;;;;;;;35.90;27.90;;;;;;5068913;28;20387;-80
2021/09/12 08:02:16;;;;;;;;;;;35.90;28.10;;;;;;5068183;28;19914;-79
2021/09/12 08:04:41;;;;;;;;;;;35.90;27.90;;;;;;5068104;28;19959;-80
2021/09/12 08:07:07;;;;;;;;;;;36.20;27.90;;;;;;5068294;28;19915;-79
2021/09/12 08:09:33;;;;;;;;;;;36.20;27.40;;;;;;5068760;28;19908;-80
2021/09/12 08:11:59;;;;;;;;;;;36.30;27.50;;;;;;5068900;28;19915;-79
2021/09/12 08:14:24;;;;;;;;;;;36.20;27.30;;;;;;5069509;28;19999;-79
2021/09/12 08:16:50;;;;;;;;;;;36.00;27.60;;;;;;5068664;28;19915;-79
2021/09/12 08:19:15;;;;;;;;;;;35.90;28.20;;;;;;5067989;28;19965;-80
2021/09/12 08:21:41;;;;;;;;;;;36.20;27.50;;;;;;5067739;28;19908;-80
2021/09/12 08:24:07;;;;;;;;;;;36.20;27.80;;;;;;5068142;28;20039;-80
2021/09/12 08:26:32;;;;;;;;;;;36.30;27.10;;;;;;5068024;28;19908;-80
2021/09/12 08:28:58;;;;;;;;;;;36.40;26.90;;;;;;5068197;28;19908;-79
2021/09/12 08:31:23;;;;;;;;;;;36.40;27.20;;;;;;5067695;28;19948;-81
2021/09/12 08:33:49;;;;;;;;;;;36.10;27.40;;;;;;5067661;28;19908;-80
2021/09/12 08:36:15;;;;;;;;;;;36.10;27.20;;;;;;5067671;28;19910;-80
2021/09/12 08:38:40;;;;;;;;;;;35.90;27.60;;;;;;5067986;28;19908;-81
2021/09/12 08:41:07;;;;;;;;;;;36.10;27.40;;;;;;5067893;28;19962;-79
2021/09/12 08:43:33;;;;;;;;;;;35.90;27.20;;;;;;5067585;28;19916;-80
2021/09/12 08:45:59;;;;;;;;;;;35.80;27.70;;;;;;5067884;28;19928;-80
2021/09/12 08:48:25;;;;;;;;;;;35.90;27.50;;;;;;5067906;28;20396;-80
2021/09/12 08:50:51;;;;;;;;;;;35.80;27.80;;;;;;5067787;28;19908;-80
2021/09/12 08:53:16;;;;;;;;;;;35.60;27.90;;;;;;5069200;28;19915;-80
2021/09/12 08:55:42;;;;;;;;;;;35.60;27.70;;;;;;5072207;28;20369;-79
2021/09/12 08:58:07;;;;;;;;;;;35.70;28.10;;;;;;5071708;28;20376;-80
2021/09/12 09:00:33;;;;;;;;;;;35.70;27.80;;;;;;5071744;28;19909;-80
2021/09/12 09:03:03;;;;;;;;;;;35.70;27.80;;;;;;5072326;28;19916;-79
2021/09/12 09:05:33;;;;;;;;;;;35.90;27.70;;;;;;5072176;28;19908;-79
2021/09/12 09:08:05;;;;;;;;;;;35.80;27.70;;;;;;5072344;28;20236;-79
2021/09/12 09:10:36;;;;;;;;;;;35.80;27.60;;;;;;5072364;28;19944;-78
2021/09/12 09:13:01;;;;;;;;;;;35.90;27.70;;;;;;5072153;28;19908;-78
2021/09/12 09:15:27;;;;;;;;;;;36.10;27.70;;;;;;5071973;28;19904;-80
2021/09/12 09:17:54;;;;;;;;;;;36.30;27.50;;;;;;5070908;28;19909;-79
2021/09/12 09:20:27;;;;;;;;;;;36.30;27.20;;;;;;5072167;28;19912;-79
2021/09/12 09:22:52;;;;;;;;;;;36.30;27.30;;;;;;5071619;28;19966;-80
2021/09/12 09:25:22;;;;;;;;;;;36.50;27.00;;;;;;5071763;28;19905;-78
2021/09/12 09:27:52;;;;;;;;;;;36.50;27.30;;;;;;5071795;28;20009;-80
2021/09/12 09:30:17;;;;;;;;;;;36.70;27.10;;;;;;5072060;28;20356;-80
2021/09/12 09:32:43;;;;;;;;;;;36.80;27.00;;;;;;5071727;28;19911;-80
2021/09/12 09:35:11;;;;;;;;;;;36.90;26.60;;;;;;5072005;28;20428;-79
2021/09/12 09:37:45;;;;;;;;;;;36.90;26.40;;;;;;5071893;28;19991;-81
2021/09/12 09:40:11;;;;;;;;;;;37.00;26.60;;;;;;5071755;28;19999;-80
2021/09/12 09:42:37;;;;;;;;;;;37.10;26.10;;;;;;5071492;28;20010;-80
2021/09/12 09:45:05;;;;;;;;;;;37.30;26.00;;;;;;5071393;28;19908;-79
2021/09/12 09:47:31;;;;;;;;;;;37.30;26.00;;;;;;5071390;28;19908;-79
2021/09/12 09:50:12;;;;;;;;;;;37.50;26.20;;;;;;5071481;28;19915;-79
2021/09/12 09:52:38;;;;;;;;;;;37.70;25.90;;;;;;5071385;28;19908;-79
2021/09/12 09:55:05;;;;;;;;;;;37.30;26.10;;;;;;5071378;28;19904;-80
2021/09/12 09:57:30;;;;;;;;;;;37.40;25.80;;;;;;5069807;28;20393;-79
2021/09/12 09:59:57;;;;;;;;;;;37.60;25.90;;;;;;5071326;28;19966;-79
2021/09/12 10:02:23;;;;;;;;;;;37.90;26.00;;;;;;5071045;28;19999;-79
2021/09/12 10:04:49;;;;;;;;;;;37.90;25.60;;;;;;5069919;28;19995;-79
2021/09/12 10:07:15;;;;;;;;;;;37.80;25.30;;;;;;5070957;28;20502;-79
2021/09/12 10:09:40;;;;;;;;;;;37.90;25.50;;;;;;5071106;28;19996;-79
2021/09/12 10:12:08;;;;;;;;;;;38.00;25.70;;;;;;5069896;28;19908;-80
2021/09/12 10:14:44;;;;;;;;;;;38.10;25.70;;;;;;5071028;28;20006;-80
2021/09/12 10:17:14;;;;;;;;;;;37.80;25.30;;;;;;5070944;28;19908;-80
2021/09/12 10:19:43;;;;;;;;;;;37.50;25.30;;;;;;5070923;28;19908;-80
2021/09/12 10:22:16;;;;;;;;;;;36.90;25.70;;;;;;5070803;28;19953;-80
2021/09/12 10:24:59;;;;;;;;;;;36.30;26.30;;;;;;5070965;28;19916;-77
2021/09/12 10:27:35;;;;;;;;;;;35.20;26.10;;;;;;5070681;28;19909;-79
2021/09/12 10:30:21;;;;;;;;;;;33.90;27.00;;;;;;5070858;28;19961;-78
2021/09/12 10:32:49;;;;;;;;;;;33.00;27.70;;;;;;5063160;28;19908;-79
2021/09/12 10:35:15;;;;;;;;;;;32.10;29.30;;;;;;5070973;28;19954;-78
2021/09/12 10:37:40;;;;;;;;;;;31.70;28.80;;;;;;5070477;28;20339;-79
2021/09/12 10:40:06;;;;;;;;;;;31.50;29.40;;;;;;5070748;28;20455;-80
2021/09/12 10:42:41;;;;;;;;;;;31.10;29.70;;;;;;5070538;28;19931;-80
2021/09/12 10:45:26;;;;;;;;;;;30.80;29.60;;;;;;5070354;28;20412;-80
2021/09/12 10:48:11;;;;;;;;;;;30.60;30.30;;;;;;5069213;28;19912;-79
2021/09/12 10:50:41;;;;;;;;;;;30.40;29.90;;;;;;5070302;28;19915;-79
2021/09/12 10:53:07;;;;;;;;;;;30.30;30.20;;;;;;5070437;28;19915;-80
2021/09/12 10:55:51;;;;;;;;;;;30.30;30.50;;;;;;5070059;28;19908;-79
2021/09/12 10:58:16;;;;;;;;;;;30.40;30.70;;;;;;5070664;28;20014;-80
2021/09/12 11:00:45;;;;;;;;;;;30.40;30.60;;;;;;5070781;28;20046;-80
2021/09/12 11:03:15;;;;;;;;;;;30.40;30.60;;;;;;5070095;28;19923;-80
2021/09/12 11:05:40;;;;;;;;;;;30.40;31.10;;;;;;5070003;28;19915;-80
2021/09/12 11:08:06;;;;;;;;;;;30.40;32.00;;;;;;5069851;28;19908;-79
2021/09/12 11:10:38;;;;;;;;;;;30.40;31.40;;;;;;5069988;28;19915;-80
2021/09/12 11:13:04;;;;;;;;;;;30.40;31.20;;;;;;5069686;28;19904;-79
2021/09/12 11:15:30;;;;;;;;;;;30.50;31.20;;;;;;5069547;28;19904;-80
2021/09/12 11:17:55;;;;;;;;;;;30.50;30.80;;;;;;5069715;28;19969;-80
2021/09/12 11:20:21;;;;;;;;;;;30.40;31.00;;;;;;5069427;28;19904;-81
2021/09/12 11:22:52;;;;;;;;;;;30.40;31.00;;;;;;5069557;28;19917;-78
2021/09/12 11:25:20;;;;;;;;;;;30.30;30.70;;;;;;5069488;28;19904;-80
2021/09/12 11:28:02;;;;;;;;;;;30.10;30.40;;;;;;5069725;28;19915;-80
2021/09/12 11:30:28;;;;;;;;;;;29.90;30.20;;;;;;5069633;28;19948;-79
2021/09/12 11:32:53;;;;;;;;;;;29.60;30.80;;;;;;5069478;28;19978;-80
2021/09/12 11:35:19;;;;;;;;;;;29.60;31.40;;;;;;5069223;28;19908;-80
2021/09/12 11:37:44;;;;;;;;;;;29.70;31.40;;;;;;5068351;28;19912;-79
2021/09/12 11:40:10;;;;;;;;;;;29.60;30.90;;;;;;5069445;28;20540;-81
2021/09/12 11:42:36;;;;;;;;;;;29.50;31.00;;;;;;5068778;28;20459;-79
2021/09/12 11:45:02;;;;;;;;;;;29.40;29.80;;;;;;5069410;28;19909;-80
2021/09/12 11:47:28;;;;;;;;;;;29.30;29.70;;;;;;5069214;28;20084;-80
2021/09/12 11:50:01;;;;;;;;;;;29.10;30.00;;;;;;5069311;28;20434;-81
2021/09/12 11:52:37;;;;;;;;;;;29.00;30.20;;;;;;5069256;28;19929;-80
2021/09/12 11:55:16;;;;;;;;;;;29.00;30.10;;;;;;5069186;28;19908;-81
2021/09/12 11:57:42;;;;;;;;;;;29.10;30.10;;;;;;5069019;28;19920;-81
2021/09/12 12:00:08;;;;;;;;;;;29.20;30.50;;;;;;5068932;28;19912;-80
2021/09/12 12:02:34;;;;;;;;;;;29.00;29.50;;;;;;5068129;28;19904;-81
2021/09/12 12:05:00;;;;;;;;;;;29.00;29.80;;;;;;5068200;28;20377;-81
2021/09/12 12:07:35;;;;;;;;;;;28.90;30.00;;;;;;5067796;28;19904;-80
2021/09/12 12:10:00;;;;;;;;;;;28.90;29.30;;;;;;5068201;28;19965;-80
2021/09/12 12:12:34;;;;;;;;;;;28.90;29.30;;;;;;5068055;28;20369;-79
2021/09/12 12:15:00;;;;;;;;;;;28.90;28.60;;;;;;5068470;28;19916;-79
2021/09/12 12:17:26;;;;;;;;;;;28.80;28.40;;;;;;5067958;28;19913;-79
2021/09/12 12:19:55;;;;;;;;;;;28.80;28.90;;;;;;5068801;28;20021;-80
2021/09/12 12:22:21;;;;;;;;;;;28.90;29.20;;;;;;5068615;28;19908;-79
2021/09/12 12:24:50;;;;;;;;;;;29.00;28.70;;;;;;5068606;28;19905;-78
2021/09/12 12:27:17;;;;;;;;;;;29.10;28.50;;;;;;5068397;28;19915;-81
2021/09/12 12:29:44;;;;;;;;;;;29.30;28.00;;;;;;5068523;28;19915;-80
2021/09/12 12:32:11;;;;;;;;;;;29.10;29.40;;;;;;5068656;28;19909;-81
2021/09/12 12:34:40;;;;;;;;;;;29.10;28.90;;;;;;5068815;28;20305;-78
2021/09/12 12:37:06;;;;;;;;;;;29.10;28.90;;;;;;5068692;28;19995;-79
2021/09/12 12:39:32;;;;;;;;;;;29.20;28.50;;;;;;5068325;28;20365;-79
2021/09/12 12:41:57;;;;;;;;;;;29.30;28.70;;;;;;5068697;28;19915;-79
2021/09/12 12:44:23;;;;;;;;;;;29.40;28.30;;;;;;5068421;28;19912;-80
2021/09/12 12:46:49;;;;;;;;;;;29.50;27.80;;;;;;5068727;28;19908;-80
2021/09/12 12:49:22;;;;;;;;;;;29.40;28.00;;;;;;5068622;28;20054;-78
2021/09/12 12:52:03;;;;;;;;;;;29.40;27.70;;;;;;5068329;28;20027;-79
2021/09/12 12:54:31;;;;;;;;;;;29.30;27.70;;;;;;5068684;28;19911;-78
2021/09/12 12:56:57;;;;;;;;;;;29.30;28.30;;;;;;5067463;28;19920;-82
2021/09/12 12:59:23;;;;;;;;;;;29.40;27.70;;;;;;5068680;28;19954;-82
2021/09/12 13:01:48;;;;;;;;;;;29.40;27.90;;;;;;5068677;28;19915;-82
2021/09/12 13:04:14;;;;;;;;;;;29.30;28.00;;;;;;5068950;28;19934;-81
2021/09/12 13:06:39;;;;;;;;;;;29.20;27.80;;;;;;5067339;28;19908;-79
2021/09/12 13:09:05;;;;;;;;;;;29.20;28.00;;;;;;5068738;28;19928;-80
2021/09/12 13:11:32;;;;;;;;;;;29.20;28.10;;;;;;5068703;28;20233;-80
2021/09/12 13:13:57;;;;;;;;;;;29.20;28.50;;;;;;5068366;28;19998;-80
2021/09/12 13:16:23;;;;;;;;;;;29.30;28.40;;;;;;5068575;28;20004;-80
2021/09/12 13:18:50;;;;;;;;;;;29.20;28.30;;;;;;5083874;28;20006;-82
2021/09/12 13:21:15;;;;;;;;;;;29.30;28.00;;;;;;5090695;28;19919;-81
2021/09/12 13:23:41;;;;;;;;;;;29.30;27.60;;;;;;5103577;28;19916;-81
2021/09/12 13:26:07;;;;;;;;;;;29.20;27.60;;;;;;5099615;28;20399;-82
2021/09/12 13:28:32;;;;;;;;;;;29.20;27.80;;;;;;5086971;28;19908;-81
2021/09/12 13:30:58;;;;;;;;;;;29.20;28.00;;;;;;5085927;28;19989;-81
2021/09/12 13:33:27;;;;;;;;;;;29.10;27.50;;;;;;5085395;28;20384;-79
2021/09/12 13:35:52;;;;;;;;;;;29.00;27.60;;;;;;5084509;28;19912;-81
2021/09/12 13:38:18;;;;;;;;;;;28.90;28.10;;;;;;5085867;28;19915;-80
2021/09/12 13:40:43;;;;;;;;;;;28.90;28.00;;;;;;5089182;28;19915;-81
2021/09/12 13:43:09;;;;;;;;;;;28.90;27.60;;;;;;5089222;28;19916;-80
2021/09/12 13:45:34;;;;;;;;;;;28.90;27.90;;;;;;5089350;28;19915;-81
2021/09/12 13:48:00;;;;;;;;;;;28.70;28.10;;;;;;5088917;28;19908;-81
2021/09/12 13:50:26;;;;;;;;;;;28.70;27.80;;;;;;5087221;28;20414;-81
2021/09/12 13:52:51;;;;;;;;;;;28.70;28.30;;;;;;5088144;28;19912;-82
2021/09/12 13:55:17;;;;;;;;;;;28.70;28.20;;;;;;5089129;28;20455;-80
2021/09/12 13:57:42;;;;;;;;;;;28.80;28.10;;;;;;5089037;28;19920;-80
2021/09/12 14:00:08;;;;;;;;;;;28.70;28.10;;;;;;5087795;28;20431;-80
2021/09/12 14:02:34;;;;;;;;;;;28.70;28.70;;;;;;5092130;28;19908;-80
2021/09/12 14:04:59;;;;;;;;;;;28.90;28.60;;;;;;5109307;28;19907;-80
2021/09/12 14:07:32;;;;;;;;;;;28.80;28.40;;;;;;5109024;28;19945;-81
2021/09/12 14:09:58;;;;;;;;;;;28.80;27.90;;;;;;5107484;28;19914;-80
2021/09/12 14:12:24;;;;;;;;;;;28.80;28.40;;;;;;5107655;28;19907;-80